Time;durP1;ratioP1;P1;durP2;ratioP2;P2;SDS_P1;SDS_P2;PMS_P1;PMS_P2;Temp;Humidity;BMP_temperature;BMP_pressure;BME280_temperature;BME280_humidity;BME280_pressure;Samples;Min_cycle;Max_cycle;Signal;HPM_P1;HPM_P2
2022/11/08 00:01:35;;;;;;;;;;;;;;;21.53;57.99;99759.13;7256241;19;152912;-55
2022/11/08 00:04:10;;;;;;;;;;;;;;;21.53;58.08;99742.28;7261357;19;152190;-55
2022/11/08 00:14:54;;;;;;;;;;;;;;;21.52;58.15;99724.59;7258569;19;153173;-55
2022/11/08 00:17:22;;;;;;;;;;;;;;;21.53;58.11;99737.44;7255474;19;154032;-55
2022/11/08 00:19:50;;;;;;;;;;;;;;;21.52;57.97;99727.41;7258492;19;153962;-55
2022/11/08 00:22:17;;;;;;;;;;;;;;;21.52;57.94;99747.06;7258968;19;152699;-55
2022/11/08 00:24:44;;;;;;;;;;;;;;;21.51;57.97;99734.19;7259708;19;152468;-54
2022/11/08 00:27:12;;;;;;;;;;;;;;;21.49;58.14;99736.50;7255991;19;153535;-54
2022/11/08 00:29:39;;;;;;;;;;;;;;;21.50;58.46;99710.03;7255369;19;153481;-54
2022/11/08 00:32:09;;;;;;;;;;;;;;;21.48;58.46;99687.09;7258810;19;153906;-54
2022/11/08 00:34:37;;;;;;;;;;;;;;;21.50;58.41;99706.41;7265998;19;153572;-54
2022/11/08 00:37:04;;;;;;;;;;;;;;;21.47;58.46;99690.25;7256234;19;153449;-54
2022/11/08 00:39:31;;;;;;;;;;;;;;;21.45;58.53;99696.19;7259161;19;154680;-54
2022/11/08 00:41:58;;;;;;;;;;;;;;;21.46;58.58;99700.66;7258703;19;153182;-54
2022/11/08 00:44:25;;;;;;;;;;;;;;;21.46;59.20;99685.78;7255915;19;154024;-54
2022/11/08 00:46:52;;;;;;;;;;;;;;;21.46;59.10;99686.59;7256977;19;155048;-54
2022/11/08 00:49:20;;;;;;;;;;;;;;;21.45;59.17;99686.94;7258582;19;152900;-54
2022/11/08 00:51:47;;;;;;;;;;;;;;;21.44;59.02;99674.88;7256919;19;153957;-54
2022/11/08 00:54:15;;;;;;;;;;;;;;;21.43;58.91;99675.25;7255176;19;154492;-54
2022/11/08 00:56:42;;;;;;;;;;;;;;;21.42;59.68;99663.19;7265314;19;153198;-54
2022/11/08 00:59:10;;;;;;;;;;;;;;;21.43;59.35;99649.94;7256222;19;153053;-55
2022/11/08 01:01:42;;;;;;;;;;;;;;;21.40;59.85;99640.22;7257034;19;153418;-54
2022/11/08 01:04:17;;;;;;;;;;;;;;;21.42;59.70;99662.34;7259014;19;152660;-54
2022/11/08 01:06:44;;;;;;;;;;;;;;;21.41;59.38;99638.22;7254911;19;153513;-54
2022/11/08 01:09:11;;;;;;;;;;;;;;;21.42;59.30;99631.44;7257205;19;153461;-54
2022/11/08 01:11:45;;;;;;;;;;;;;;;21.43;59.37;99627.47;7257098;19;153639;-54
2022/11/08 01:14:14;;;;;;;;;;;;;;;21.40;59.61;99636.56;7256063;19;154019;-54
2022/11/08 01:16:41;;;;;;;;;;;;;;;21.41;59.37;99619.38;7255388;19;153896;-54
2022/11/08 01:19:08;;;;;;;;;;;;;;;21.43;59.47;99621.84;7264811;19;153126;-54
2022/11/08 01:21:35;;;;;;;;;;;;;;;21.42;59.37;99620.19;7254698;19;153357;-54
2022/11/08 01:24:03;;;;;;;;;;;;;;;21.42;58.89;99608.97;7258814;19;154449;-54
2022/11/08 01:26:30;;;;;;;;;;;;;;;21.40;58.85;99605.66;7252645;19;154661;-54
2022/11/08 01:28:57;;;;;;;;;;;;;;;21.41;59.17;99608.13;7257576;19;153072;-54
2022/11/08 01:31:28;;;;;;;;;;;;;;;21.40;58.88;99595.25;7254603;19;153751;-54
2022/11/08 01:34:04;;;;;;;;;;;;;;;21.38;59.09;99599.59;7256531;19;153593;-54
2022/11/08 01:36:31;;;;;;;;;;;;;;;21.37;58.97;99595.97;7255988;19;153325;-54
2022/11/08 01:38:58;;;;;;;;;;;;;;;21.34;58.31;99579.81;7259203;19;153492;-53
2022/11/08 01:41:25;;;;;;;;;;;;;;;21.33;58.15;99582.94;7263361;19;154110;-54
2022/11/08 01:43:53;;;;;;;;;;;;;;;21.35;58.22;99584.22;7250908;19;153919;-54
2022/11/08 01:46:29;;;;;;;;;;;;;;;21.35;58.06;99577.81;7254516;19;153517;-54
2022/11/08 01:49:08;;;;;;;;;;;;;;;21.34;58.36;99571.38;7257158;19;153011;-54
2022/11/08 01:51:38;;;;;;;;;;;;;;;21.34;57.68;99573.34;7252631;19;152766;-54
2022/11/08 01:54:07;;;;;;;;;;;;;;;21.33;57.62;99572.53;7254572;19;153802;-54
2022/11/08 01:56:35;;;;;;;;;;;;;;;21.33;57.95;99577.31;7252820;19;153792;-54
2022/11/08 01:59:05;;;;;;;;;;;;;;;21.31;57.84;99586.09;7255763;19;155235;-54
2022/11/08 02:01:39;;;;;;;;;;;;;;;21.30;57.64;99571.22;7258986;19;156100;-54
2022/11/08 02:04:07;;;;;;;;;;;;;;;21.29;57.65;99566.78;7256084;19;153242;-54
2022/11/08 02:06:36;;;;;;;;;;;;;;;21.27;57.83;99574.72;7251845;19;153372;-54
2022/11/08 02:09:06;;;;;;;;;;;;;;;21.25;57.84;99567.84;7258904;19;152749;-54
2022/11/08 02:11:41;;;;;;;;;;;;;;;21.26;57.90;99569.44;7255405;19;152733;-54
2022/11/08 02:14:10;;;;;;;;;;;;;;;21.24;57.82;99571.81;7254582;19;153907;-54
2022/11/08 02:16:38;;;;;;;;;;;;;;;21.22;57.89;99562.88;7253888;19;153159;-54
2022/11/08 02:19:07;;;;;;;;;;;;;;;21.20;57.95;99577.31;7259374;19;153797;-54
2022/11/08 02:21:41;;;;;;;;;;;;;;;21.19;58.09;99574.84;7254864;19;154441;-54
2022/11/08 02:24:10;;;;;;;;;;;;;;;21.18;58.26;99564.75;7266062;19;153243;-53
2022/11/08 02:26:37;;;;;;;;;;;;;;;21.17;58.07;99555.50;7250923;19;153713;-53
2022/11/08 02:29:23;;;;;;;;;;;;;;;21.14;57.78;99535.72;7255237;19;153267;-54
2022/11/08 02:31:50;;;;;;;;;;;;;;;21.13;58.04;99546.13;7256396;19;152697;-53
2022/11/08 02:34:19;;;;;;;;;;;;;;;21.12;58.41;99543.66;7252470;19;152939;-54
2022/11/08 02:36:47;;;;;;;;;;;;;;;21.10;58.09;99544.00;7254684;19;152908;-54
2022/11/08 02:39:14;;;;;;;;;;;;;;;21.10;57.95;99549.63;7254331;19;152337;-54
2022/11/08 02:41:43;;;;;;;;;;;;;;;21.09;58.23;99533.09;7252501;19;154125;-54
2022/11/08 02:44:12;;;;;;;;;;;;;;;21.08;58.46;99542.69;7252513;19;153311;-54
2022/11/08 02:46:39;;;;;;;;;;;;;;;21.07;58.33;99543.88;7260031;19;152776;-54
2022/11/08 02:49:06;;;;;;;;;;;;;;;21.06;58.29;99534.63;7254417;19;154311;-54
2022/11/08 02:51:35;;;;;;;;;;;;;;;21.06;58.37;99536.63;7254504;19;152708;-54
2022/11/08 02:54:02;;;;;;;;;;;;;;;21.05;58.26;99541.41;7252171;19;153319;-54
2022/11/08 02:56:29;;;;;;;;;;;;;;;21.03;58.42;99538.09;7254198;19;154339;-54
2022/11/08 02:58:56;;;;;;;;;;;;;;;21.02;58.13;99533.69;7253542;19;153246;-54
2022/11/08 03:01:23;;;;;;;;;;;;;;;21.01;58.44;99536.81;7254504;19;154061;-54
2022/11/08 03:03:50;;;;;;;;;;;;;;;21.02;58.48;99533.69;7256023;19;153190;-55
2022/11/08 03:06:17;;;;;;;;;;;;;;;21.00;58.83;99532.38;7253859;19;154249;-54
2022/11/08 03:08:44;;;;;;;;;;;;;;;20.99;58.91;99531.53;7261790;19;153943;-54
2022/11/08 03:11:11;;;;;;;;;;;;;;;20.99;58.47;99527.91;7256376;19;154418;-54
2022/11/08 03:13:38;;;;;;;;;;;;;;;20.97;59.04;99521.84;7252817;19;153433;-54
2022/11/08 03:16:05;;;;;;;;;;;;;;;20.96;58.63;99521.00;7253548;19;152820;-54
2022/11/08 03:18:33;;;;;;;;;;;;;;;20.95;58.76;99502.53;7251293;19;155076;-54
2022/11/08 03:21:00;;;;;;;;;;;;;;;20.95;58.93;99507.31;7253080;19;155360;-54
2022/11/08 03:23:27;;;;;;;;;;;;;;;20.94;58.95;99498.06;7253964;19;152417;-54
2022/11/08 03:25:54;;;;;;;;;;;;;;;20.95;58.84;99494.09;7253673;19;154212;-54
2022/11/08 03:28:21;;;;;;;;;;;;;;;20.92;58.71;99475.16;7252360;19;154331;-54
2022/11/08 03:30:50;;;;;;;;;;;;;;;20.92;58.74;99446.25;7260975;19;153247;-54
2022/11/08 03:33:18;;;;;;;;;;;;;;;20.91;59.12;99444.59;7253872;19;152753;-54
2022/11/08 03:35:46;;;;;;;;;;;;;;;20.89;59.13;99461.00;7255339;19;152839;-54
2022/11/08 03:38:13;;;;;;;;;;;;;;;20.89;58.86;99497.47;7252916;19;152778;-54
2022/11/08 03:40:41;;;;;;;;;;;;;;;20.88;59.24;99498.66;7252612;19;154610;-57
2022/11/08 03:43:08;;;;;;;;;;;;;;;20.87;59.25;99497.81;7251621;19;152844;-54
2022/11/08 03:45:35;;;;;;;;;;;;;;;20.86;59.54;99494.19;7251946;19;154102;-54
2022/11/08 03:48:02;;;;;;;;;;;;;;;20.86;59.15;99505.41;7253902;19;152475;-54
2022/11/08 03:50:29;;;;;;;;;;;;;;;20.85;59.30;99514.19;7254036;19;152227;-54
2022/11/08 03:52:56;;;;;;;;;;;;;;;20.85;59.05;99500.13;7261824;19;152850;-54
2022/11/08 03:55:24;;;;;;;;;;;;;;;20.84;59.36;99504.97;7251697;19;153118;-54
2022/11/08 03:57:51;;;;;;;;;;;;;;;20.84;59.51;99490.09;7249293;19;153534;-54
2022/11/08 04:00:20;;;;;;;;;;;;;;;20.81;59.47;99483.19;7250481;19;154237;-54
2022/11/08 04:02:47;;;;;;;;;;;;;;;20.83;59.49;99486.47;7253054;19;153238;-54
2022/11/08 04:05:14;;;;;;;;;;;;;;;20.83;59.82;99491.25;7252501;19;153471;-54
2022/11/08 04:07:42;;;;;;;;;;;;;;;20.81;59.68;99473.94;7258790;19;154380;-54
2022/11/08 04:10:09;;;;;;;;;;;;;;;20.81;59.75;99485.16;7260881;19;153314;-54
2022/11/08 04:15:26;;;;;;;;;;;;;;;20.78;60.40;99495.09;7257902;19;153795;-54
2022/11/08 04:23:25;;;;;;;;;;;;;;;20.76;60.21;99479.75;7259799;19;153529;-54
2022/11/08 04:25:54;;;;;;;;;;;;;;;20.77;60.21;99481.41;7261209;19;153318;-54
2022/11/08 04:28:22;;;;;;;;;;;;;;;20.76;60.22;99479.75;7258059;19;154302;-54
2022/11/08 04:30:53;;;;;;;;;;;;;;;20.75;60.58;99476.16;7259094;19;153686;-55
2022/11/08 04:33:20;;;;;;;;;;;;;;;20.74;60.88;99466.09;7259772;19;154054;-54
2022/11/08 04:35:48;;;;;;;;;;;;;;;20.75;60.83;99478.13;7268669;19;154550;-55
2022/11/08 04:38:15;;;;;;;;;;;;;;;20.74;60.76;99460.47;7258555;19;154084;-55
2022/11/08 04:40:43;;;;;;;;;;;;;;;20.74;60.49;99462.47;7258306;19;153959;-54
2022/11/08 04:43:10;;;;;;;;;;;;;;;20.74;60.58;99462.47;7258792;19;152392;-54
2022/11/08 04:45:38;;;;;;;;;;;;;;;20.74;60.51;99470.88;7255969;19;153013;-54
2022/11/08 04:48:05;;;;;;;;;;;;;;;20.72;60.56;99457.19;7260317;19;153637;-54
2022/11/08 04:50:32;;;;;;;;;;;;;;;20.73;60.33;99463.63;7258253;19;153682;-54
2022/11/08 04:53:00;;;;;;;;;;;;;;;20.70;60.32;99459.53;7258414;19;152287;-54
2022/11/08 04:55:27;;;;;;;;;;;;;;;20.70;60.51;99461.50;7260154;19;153058;-54
2022/11/08 04:57:56;;;;;;;;;;;;;;;20.68;60.56;99464.66;7263968;19;153218;-52
2022/11/08 05:00:23;;;;;;;;;;;;;;;20.68;60.69;99466.63;7256828;19;153496;-53
2022/11/08 05:02:50;;;;;;;;;;;;;;;20.67;60.27;99454.59;7259235;19;154102;-54
2022/11/08 05:05:17;;;;;;;;;;;;;;;20.67;60.82;99453.78;7258034;19;152991;-53
2022/11/08 05:07:44;;;;;;;;;;;;;;;20.66;60.47;99449.34;7256583;19;152960;-53
2022/11/08 05:10:10;;;;;;;;;;;;;;;20.65;60.50;99450.50;7258327;19;152543;-53
2022/11/08 05:12:38;;;;;;;;;;;;;;;20.63;60.57;99447.22;7257153;19;153997;-54
2022/11/08 05:15:07;;;;;;;;;;;;;;;20.62;60.46;99446.41;7253498;19;153403;-54
2022/11/08 05:17:34;;;;;;;;;;;;;;;20.62;60.66;99460.44;7257937;19;152770;-56
2022/11/08 05:25:36;;;;;;;;;;;;;;;20.58;60.11;99453.84;7255929;19;153654;-55
2022/11/08 05:28:04;;;;;;;;;;;;;;;20.57;60.22;99446.63;7256579;19;154370;-55
2022/11/08 05:30:32;;;;;;;;;;;;;;;20.56;60.46;99441.34;7252341;19;154308;-55
2022/11/08 05:32:59;;;;;;;;;;;;;;;20.56;60.28;99427.31;7259032;19;152728;-55
2022/11/08 05:35:26;;;;;;;;;;;;;;;20.54;60.17;99433.25;7255365;19;152256;-55
2022/11/08 05:37:53;;;;;;;;;;;;;;;20.53;60.42;99437.25;7256810;19;152774;-55
2022/11/08 05:40:20;;;;;;;;;;;;;;;20.53;60.33;99436.44;7256728;19;153707;-55
2022/11/08 05:42:47;;;;;;;;;;;;;;;20.53;60.55;99442.06;7262685;19;154162;-56
2022/11/08 05:45:13;;;;;;;;;;;;;;;20.52;60.35;99448.81;7253542;19;152989;-55
2022/11/08 05:47:44;;;;;;;;;;;;;;;20.52;60.54;99446.00;7256985;19;154304;-54
2022/11/08 05:50:11;;;;;;;;;;;;;;;20.51;60.53;99444.38;7256818;19;152695;-55
2022/11/08 05:52:45;;;;;;;;;;;;;;;20.51;60.87;99447.16;7257045;19;154102;-55
2022/11/08 05:55:12;;;;;;;;;;;;;;;20.50;61.07;99451.13;7253143;19;154102;-55
2022/11/08 05:57:42;;;;;;;;;;;;;;;20.49;61.27;99436.28;7255713;19;153378;-55
2022/11/08 06:00:10;;;;;;;;;;;;;;;20.50;60.91;99431.50;7254102;19;153013;-55
2022/11/08 06:02:38;;;;;;;;;;;;;;;20.49;61.15;99446.72;7256414;19;153659;-55
2022/11/08 06:05:05;;;;;;;;;;;;;;;20.49;60.85;99453.13;7262521;19;152818;-56
2022/11/08 06:07:32;;;;;;;;;;;;;;;20.46;61.46;99456.63;7255524;19;153476;-55
2022/11/08 06:09:59;;;;;;;;;;;;;;;20.46;61.25;99451.00;7251192;19;152812;-56
2022/11/08 06:12:26;;;;;;;;;;;;;;;20.47;61.53;99446.22;7254633;19;152993;-55
2022/11/08 06:14:53;;;;;;;;;;;;;;;20.46;61.54;99444.56;7252025;19;153655;-55
2022/11/08 06:17:20;;;;;;;;;;;;;;;20.46;61.53;99445.41;7253489;19;152138;-55
2022/11/08 06:19:54;;;;;;;;;;;;;;;20.45;61.43;99449.38;7254424;19;153564;-55
2022/11/08 06:22:21;;;;;;;;;;;;;;;20.46;61.34;99436.97;7253614;19;154477;-55
2022/11/08 06:24:48;;;;;;;;;;;;;;;20.45;62.46;99443.75;7265521;19;152561;-55
2022/11/08 06:27:15;;;;;;;;;;;;;;;20.48;62.68;99451.50;7250895;19;154737;-55
2022/11/08 06:29:43;;;;;;;;;;;;;;;20.49;62.74;99447.50;7249248;19;151784;-55
2022/11/08 06:32:10;;;;;;;;;;;;;;;20.51;62.92;99448.00;7254314;19;153052;-53
2022/11/08 06:34:37;;;;;;;;;;;;;;;20.54;63.26;99452.91;7254059;19;152609;-53
2022/11/08 06:37:04;;;;;;;;;;;;;;;20.58;63.32;99456.66;7253136;19;154070;-53
2022/11/08 06:39:31;;;;;;;;;;;;;;;20.62;63.26;99454.84;7254403;19;152720;-53
2022/11/08 06:41:59;;;;;;;;;;;;;;;20.66;63.48;99463.38;7252677;19;153876;-53
2022/11/08 06:44:27;;;;;;;;;;;;;;;20.69;63.94;99468.28;7254195;19;153485;-53
2022/11/08 06:46:54;;;;;;;;;;;;;;;20.73;63.95;99447.59;7260111;19;153552;-53
2022/11/08 06:49:22;;;;;;;;;;;;;;;20.76;63.95;99451.69;7256004;19;153243;-53
2022/11/08 06:51:49;;;;;;;;;;;;;;;20.80;63.75;99453.47;7252873;19;153109;-53
2022/11/08 06:54:16;;;;;;;;;;;;;;;20.85;63.88;99452.41;7254030;19;153393;-54
2022/11/08 06:56:44;;;;;;;;;;;;;;;20.88;64.11;99454.56;7254469;19;151974;-54
2022/11/08 06:59:10;;;;;;;;;;;;;;;20.94;63.58;99452.34;7250749;19;153503;-54
2022/11/08 07:01:38;;;;;;;;;;;;;;;20.98;63.96;99470.13;7252924;19;154611;-54
2022/11/08 07:04:10;;;;;;;;;;;;;;;21.03;64.31;99476.31;7254957;19;152856;-54
2022/11/08 07:06:37;;;;;;;;;;;;;;;21.08;64.30;99483.72;7252289;19;153024;-54
2022/11/08 07:09:04;;;;;;;;;;;;;;;21.12;64.25;99481.88;7261026;19;154958;-54
2022/11/08 07:11:30;;;;;;;;;;;;;;;21.17;64.14;99481.66;7253816;19;153294;-54
2022/11/08 07:14:10;;;;;;;;;;;;;;;21.21;63.58;99482.63;7252703;19;154354;-54
2022/11/08 07:16:36;;;;;;;;;;;;;;;21.26;63.68;99483.19;7251654;19;153116;-55
2022/11/08 07:19:03;;;;;;;;;;;;;;;21.30;63.70;99472.91;7254449;19;153854;-55
2022/11/08 07:21:36;;;;;;;;;;;;;;;21.37;63.27;99472.31;7248412;19;154131;-55
2022/11/08 07:24:03;;;;;;;;;;;;;;;21.42;63.16;99474.09;7254773;19;154402;-55
2022/11/08 07:26:29;;;;;;;;;;;;;;;21.47;62.70;99473.84;7254636;19;153545;-55
2022/11/08 07:28:56;;;;;;;;;;;;;;;21.49;62.05;99479.94;7250978;19;154356;-55
2022/11/08 07:31:23;;;;;;;;;;;;;;;21.53;62.05;99480.91;7264209;19;153319;-55
2022/11/08 07:33:49;;;;;;;;;;;;;;;21.57;61.94;99476.22;7259610;19;154663;-55
2022/11/08 07:36:16;;;;;;;;;;;;;;;21.61;61.85;99482.75;7254502;19;154237;-56
2022/11/08 07:38:43;;;;;;;;;;;;;;;21.63;61.40;99486.84;7253917;19;152843;-55
2022/11/08 07:41:10;;;;;;;;;;;;;;;21.65;61.01;99484.53;7255306;19;154102;-55
2022/11/08 07:43:36;;;;;;;;;;;;;;;21.68;61.00;99486.63;7256942;19;154128;-55
2022/11/08 07:46:03;;;;;;;;;;;;;;;21.71;60.95;99485.91;7260880;19;152831;-56
2022/11/08 07:48:30;;;;;;;;;;;;;;;21.64;56.00;99496.09;7260097;19;156133;-55
2022/11/08 07:50:57;;;;;;;;;;;;;;;21.33;54.90;99485.44;7262471;19;152650;-56
2022/11/08 07:53:23;;;;;;;;;;;;;;;21.32;54.66;99503.47;7266952;19;153572;-55
2022/11/08 07:55:51;;;;;;;;;;;;;;;21.16;53.55;99500.53;7259158;19;152808;-55
2022/11/08 07:58:17;;;;;;;;;;;;;;;21.16;54.26;99494.91;7258201;19;152798;-54
2022/11/08 08:00:44;;;;;;;;;;;;;;;21.20;54.72;99498.66;7258700;19;154937;-55
2022/11/08 08:03:12;;;;;;;;;;;;;;;21.23;55.16;99499.94;7262735;19;151833;-55
2022/11/08 08:05:43;;;;;;;;;;;;;;;21.24;55.46;99502.41;7258755;19;151922;-55
2022/11/08 08:08:11;;;;;;;;;;;;;;;21.26;55.42;99511.28;7260231;19;154081;-55
2022/11/08 08:10:38;;;;;;;;;;;;;;;21.28;55.92;99511.78;7261228;19;153123;-55
2022/11/08 08:13:05;;;;;;;;;;;;;;;21.29;55.92;99512.59;7260544;19;152712;-55
2022/11/08 08:15:32;;;;;;;;;;;;;;;21.30;55.73;99508.63;7268587;19;151931;-55
2022/11/08 08:18:00;;;;;;;;;;;;;;;21.31;55.99;99507.44;7263671;19;153633;-53
2022/11/08 08:20:27;;;;;;;;;;;;;;;21.31;55.88;99504.63;7259033;19;153977;-54
2022/11/08 08:22:54;;;;;;;;;;;;;;;21.33;56.07;99518.31;7263449;19;152316;-54
2022/11/08 08:25:21;;;;;;;;;;;;;;;21.34;56.35;99517.16;7263876;19;153597;-54
2022/11/08 08:27:51;;;;;;;;;;;;;;;21.34;56.56;99514.34;7256283;19;153014;-54
2022/11/08 08:30:19;;;;;;;;;;;;;;;21.37;56.68;99519.28;7260395;19;152410;-54
2022/11/08 08:32:46;;;;;;;;;;;;;;;21.41;56.92;99514.59;7260228;19;152965;-55
2022/11/08 08:35:23;;;;;;;;;;;;;;;21.42;57.36;99513.44;7264992;19;152401;-55
2022/11/08 08:37:49;;;;;;;;;;;;;;;21.41;56.81;99508.97;7258791;19;153534;-55
2022/11/08 08:40:16;;;;;;;;;;;;;;;21.37;56.36;99511.66;7254393;19;153215;-55
2022/11/08 08:42:43;;;;;;;;;;;;;;;21.37;56.20;99522.06;7258096;19;152937;-55
2022/11/08 08:45:10;;;;;;;;;;;;;;;21.36;56.37;99515.63;7256663;19;153570;-55
2022/11/08 08:47:40;;;;;;;;;;;;;;;21.34;55.86;99512.38;7257554;19;153552;-55
2022/11/08 08:50:07;;;;;;;;;;;;;;;21.34;56.18;99515.19;7259311;19;152823;-54
2022/11/08 08:52:33;;;;;;;;;;;;;;;21.32;55.89;99519.50;7260267;19;154845;-55
2022/11/08 08:55:00;;;;;;;;;;;;;;;21.31;55.81;99510.25;7255911;19;152794;-54
2022/11/08 08:57:27;;;;;;;;;;;;;;;21.32;55.81;99525.94;7265681;19;152918;-54
2022/11/08 08:59:54;;;;;;;;;;;;;;;21.32;55.60;99519.50;7253068;19;153170;-54
2022/11/08 09:02:41;;;;;;;;;;;;;;;21.30;55.90;99522.66;7258846;19;152180;-54
2022/11/08 09:05:09;;;;;;;;;;;;;;;21.29;55.83;99515.41;7256327;19;153298;-54
2022/11/08 09:07:35;;;;;;;;;;;;;;;21.30;55.86;99511.44;7258327;19;155321;-55
2022/11/08 09:10:03;;;;;;;;;;;;;;;21.29;55.98;99515.41;7258721;19;151954;-54
2022/11/08 09:12:30;;;;;;;;;;;;;;;21.30;55.81;99519.84;7256374;19;152351;-54
2022/11/08 09:14:57;;;;;;;;;;;;;;;21.31;55.86;99524.28;7257821;19;153396;-54
2022/11/08 09:17:25;;;;;;;;;;;;;;;21.33;56.37;99533.19;7257221;19;152022;-55
2022/11/08 09:19:51;;;;;;;;;;;;;;;21.36;56.33;99526.06;7266583;19;153252;-54
2022/11/08 09:22:22;;;;;;;;;;;;;;;21.38;56.22;99515.28;7263314;19;153922;-56
2022/11/08 09:24:50;;;;;;;;;;;;;;;21.40;56.09;99519.38;7263779;19;153356;-55
2022/11/08 09:27:16;;;;;;;;;;;;;;;21.43;56.01;99512.25;7252566;19;153900;-55
2022/11/08 09:29:43;;;;;;;;;;;;;;;21.44;55.99;99508.28;7256733;19;152909;-55
2022/11/08 09:32:10;;;;;;;;;;;;;;;21.46;55.85;99517.16;7259387;19;153462;-55
2022/11/08 09:34:36;;;;;;;;;;;;;;;21.48;55.61;99512.03;7257888;19;153587;-55
2022/11/08 09:37:03;;;;;;;;;;;;;;;21.48;55.66;99506.41;7256030;19;152960;-55
2022/11/08 09:39:30;;;;;;;;;;;;;;;21.50;55.30;99507.69;7255064;19;153479;-55
2022/11/08 09:42:13;;;;;;;;;;;;;;;21.50;55.20;99513.31;7259631;19;153573;-55
2022/11/08 09:44:59;;;;;;;;;;;;;;;21.51;55.34;99512.16;7239806;19;154001;-55
2022/11/08 09:47:29;;;;;;;;;;;;;;;21.52;55.31;99504.53;7254580;19;153760;-55
2022/11/08 09:49:59;;;;;;;;;;;;;;;21.51;55.08;99503.72;7257185;19;152163;-55
2022/11/08 09:52:28;;;;;;;;;;;;;;;21.53;54.67;99503.38;7256360;19;154447;-55
2022/11/08 09:55:03;;;;;;;;;;;;;;;21.53;54.78;99503.38;7260034;19;153688;-54
2022/11/08 09:57:38;;;;;;;;;;;;;;;21.53;54.76;99500.56;7256556;19;153574;-54
2022/11/08 10:00:05;;;;;;;;;;;;;;;21.52;54.51;99491.31;7255320;19;153901;-54
2022/11/08 10:02:32;;;;;;;;;;;;;;;21.52;54.35;99516.59;7256783;19;154632;-54
2022/11/08 10:05:01;;;;;;;;;;;;;;;21.52;54.33;99499.75;7264015;19;153626;-54
2022/11/08 10:07:28;;;;;;;;;;;;;;;21.53;54.41;99497.75;7255953;19;153730;-54
2022/11/08 10:09:57;;;;;;;;;;;;;;;21.53;54.54;99490.13;7257539;19;152871;-54
2022/11/08 10:12:43;;;;;;;;;;;;;;;21.53;54.51;99486.53;7255290;19;154398;-54
2022/11/08 10:15:24;;;;;;;;;;;;;;;21.53;54.77;99500.56;7254118;19;152676;-54
2022/11/08 10:18:08;;;;;;;;;;;;;;;21.54;54.39;99499.38;7259125;19;154406;-54
2022/11/08 10:20:41;;;;;;;;;;;;;;;21.53;54.55;99504.16;7257809;19;153266;-53
2022/11/08 10:23:11;;;;;;;;;;;;;;;21.54;53.90;99505.81;7257382;19;153807;-53
2022/11/08 10:25:43;;;;;;;;;;;;;;;21.54;54.08;99496.56;7264244;19;151984;-54
2022/11/08 10:28:14;;;;;;;;;;;;;;;21.54;54.03;99488.97;7255207;19;152842;-53
2022/11/08 10:30:42;;;;;;;;;;;;;;;21.53;54.01;99487.31;7255854;19;153188;-53
2022/11/08 10:33:17;;;;;;;;;;;;;;;21.52;54.34;99496.94;7257159;19;153826;-54
2022/11/08 10:35:54;;;;;;;;;;;;;;;21.53;53.86;99514.63;7256309;19;152797;-54
2022/11/08 10:38:32;;;;;;;;;;;;;;;21.52;53.85;99518.59;7256756;19;154390;-54
2022/11/08 10:41:18;;;;;;;;;;;;;;;21.51;54.40;99500.09;7257050;19;153079;-54
2022/11/08 10:43:50;;;;;;;;;;;;;;;21.50;54.36;99507.69;7255567;19;153436;-54
2022/11/08 10:46:29;;;;;;;;;;;;;;;21.48;54.13;99512.88;7253710;19;151792;-54
2022/11/08 10:49:00;;;;;;;;;;;;;;;21.48;54.00;99524.09;7264652;19;153958;-54
2022/11/08 10:51:41;;;;;;;;;;;;;;;21.48;54.09;99518.47;7255725;19;151875;-55
2022/11/08 10:54:28;;;;;;;;;;;;;;;21.47;54.33;99519.66;7255992;19;152979;-54
2022/11/08 10:56:54;;;;;;;;;;;;;;;21.46;54.33;99518.00;7253975;19;153125;-54
2022/11/08 10:59:30;;;;;;;;;;;;;;;21.46;54.04;99531.22;7252682;19;153144;-55
2022/11/08 11:01:57;;;;;;;;;;;;;;;21.44;54.08;99527.97;7255591;19;154694;-55
2022/11/08 11:04:25;;;;;;;;;;;;;;;21.43;54.31;99515.91;7254442;19;152715;-54
2022/11/08 11:06:52;;;;;;;;;;;;;;;21.43;54.30;99534.75;7256456;19;152849;-54
2022/11/08 11:09:20;;;;;;;;;;;;;;;21.41;54.53;99518.22;7254643;19;153574;-55
2022/11/08 11:11:55;;;;;;;;;;;;;;;21.41;54.42;99506.97;7259103;19;153671;-54
2022/11/08 11:14:21;;;;;;;;;;;;;;;21.41;54.49;99512.59;7253984;19;153456;-54
2022/11/08 11:16:51;;;;;;;;;;;;;;;21.40;54.52;99513.75;7260966;19;153035;-54
2022/11/08 11:19:18;;;;;;;;;;;;;;;21.42;54.59;99507.81;7261828;19;153405;-55
2022/11/08 11:21:52;;;;;;;;;;;;;;;21.41;54.52;99504.16;7260340;19;153091;-54
2022/11/08 11:24:19;;;;;;;;;;;;;;;21.41;54.51;99503.34;7259854;19;153383;-55
2022/11/08 11:26:55;;;;;;;;;;;;;;;21.41;54.36;99501.38;7263786;19;152240;-55
2022/11/08 11:29:29;;;;;;;;;;;;;;;21.42;54.35;99503.00;7261613;19;152150;-54
2022/11/08 11:31:56;;;;;;;;;;;;;;;21.42;54.34;99496.56;7262758;19;154774;-55
2022/11/08 11:34:26;;;;;;;;;;;;;;;21.40;54.79;99498.88;7270034;19;152827;-54
2022/11/08 11:37:08;;;;;;;;;;;;;;;21.38;54.88;99502.06;7257840;19;153795;-55
2022/11/08 11:39:39;;;;;;;;;;;;;;;21.37;54.90;99491.16;7260579;19;154008;-55
2022/11/08 11:42:14;;;;;;;;;;;;;;;21.37;54.85;99488.38;7259547;19;153806;-54
2022/11/08 11:45:07;;;;;;;;;;;;;;;21.38;54.65;99493.66;7258844;19;153596;-54
2022/11/08 11:47:39;;;;;;;;;;;;;;;21.37;54.62;99493.97;7262418;19;152704;-55
2022/11/08 11:50:14;;;;;;;;;;;;;;;21.35;54.88;99479.47;7262440;19;154049;-55
2022/11/08 11:52:41;;;;;;;;;;;;;;;21.36;54.68;99487.53;7260265;19;154610;-54
2022/11/08 11:55:13;;;;;;;;;;;;;;;21.35;54.78;99483.09;7263032;19;152078;-55
2022/11/08 11:57:39;;;;;;;;;;;;;;;21.35;54.91;99490.72;7267990;19;154060;-54
2022/11/08 12:00:08;;;;;;;;;;;;;;;21.32;54.70;99492.22;7257225;19;154032;-55
2022/11/08 12:02:44;;;;;;;;;;;;;;;21.35;54.70;99504.75;7259185;19;154239;-54
2022/11/08 12:05:23;;;;;;;;;;;;;;;21.35;54.06;99493.53;7260214;19;153717;-55
2022/11/08 12:07:55;;;;;;;;;;;;;;;21.34;54.24;99492.69;7260618;19;153731;-55
2022/11/08 12:10:25;;;;;;;;;;;;;;;21.35;54.12;99483.09;7259223;19;153138;-55
2022/11/08 12:12:52;;;;;;;;;;;;;;;21.34;54.09;99484.28;7257947;19;154004;-54
2022/11/08 12:15:31;;;;;;;;;;;;;;;21.32;54.02;99480.97;7256005;19;154042;-55
2022/11/08 12:18:17;;;;;;;;;;;;;;;21.33;53.95;99471.38;7260049;19;152025;-54
2022/11/08 12:21:10;;;;;;;;;;;;;;;21.30;53.47;99466.47;7265476;19;154516;-54
2022/11/08 12:23:49;;;;;;;;;;;;;;;21.27;53.59;99458.72;7260430;19;153065;-55
2022/11/08 12:26:40;;;;;;;;;;;;;;;21.25;53.34;99477.94;7257402;19;153416;-55
2022/11/08 12:29:16;;;;;;;;;;;;;;;21.23;53.79;99474.66;7257796;19;154688;-55
2022/11/08 12:31:55;;;;;;;;;;;;;;;21.21;53.71;99485.44;7258060;19;152336;-54
2022/11/08 12:34:27;;;;;;;;;;;;;;;21.20;52.99;99466.94;7258765;19;153405;-54
2022/11/08 12:37:12;;;;;;;;;;;;;;;21.18;53.51;99467.28;7258514;19;153908;-55
2022/11/08 12:39:48;;;;;;;;;;;;;;;21.16;53.38;99474.41;7257881;19;153710;-54
2022/11/08 12:42:23;;;;;;;;;;;;;;;21.15;53.71;99479.22;7262222;19;153393;-54
2022/11/08 12:45:01;;;;;;;;;;;;;;;21.12;53.38;99460.19;7256586;19;154110;-54
2022/11/08 12:47:37;;;;;;;;;;;;;;;21.12;53.97;99465.81;7258483;19;153676;-54
2022/11/08 12:50:22;;;;;;;;;;;;;;;21.09;53.41;99466.53;7258043;19;151837;-55
2022/11/08 12:53:04;;;;;;;;;;;;;;;21.09;53.96;99451.66;7257100;19;151990;-54
2022/11/08 12:55:35;;;;;;;;;;;;;;;21.09;53.95;99446.84;7258295;19;154670;-55
2022/11/08 12:58:07;;;;;;;;;;;;;;;21.09;53.99;99455.28;7254134;19;153258;-54
2022/11/08 13:00:36;;;;;;;;;;;;;;;21.08;54.32;99455.63;7256821;19;153092;-54
2022/11/08 13:03:26;;;;;;;;;;;;;;;21.07;54.24;99456.81;7258924;19;154072;-54
2022/11/08 13:06:01;;;;;;;;;;;;;;;21.07;54.31;99465.25;7267435;19;154065;-54
2022/11/08 13:08:39;;;;;;;;;;;;;;;21.04;54.21;99465.91;7257567;19;155644;-54
2022/11/08 13:11:08;;;;;;;;;;;;;;;21.03;54.68;99467.09;7257984;19;153824;-54